createdAt,value
2023-01-11T00:01:22.072Z,99402.03
2023-01-11T00:03:50.518Z,99413.25
2023-01-11T00:06:18.861Z,99408.25
2023-01-11T00:08:47.365Z,99391.88
2023-01-11T00:11:17.605Z,99409.09
2023-01-11T00:13:47.688Z,99379.94
2023-01-11T00:16:16.133Z,99375.72
2023-01-11T00:18:44.677Z,99386.84
2023-01-11T00:21:13.152Z,99412.78
2023-01-11T00:23:41.608Z,99380.97
2023-01-11T00:26:14.073Z,99393.91
2023-01-11T00:28:42.549Z,99392.09
2023-01-11T00:31:12.450Z,99391.28
2023-01-11T00:33:40.927Z,99381.78
2023-01-11T00:36:10.469Z,99381.84
2023-01-11T00:38:47.174Z,99363.84
2023-01-11T00:41:34.615Z,99363.13
2023-01-11T00:44:21.173Z,99350.13
2023-01-11T00:47:08.752Z,99360.47
2023-01-11T00:49:37.664Z,99357.88
2023-01-11T00:52:09.320Z,99367.38
2023-01-11T00:54:39.039Z,99359.72
2023-01-11T00:57:08.373Z,99350.22
2023-01-11T00:59:37.508Z,99350.34
2023-01-11T01:02:08.564Z,99359.84
2023-01-11T01:04:37.013Z,99366.78
2023-01-11T01:07:09.449Z,99363.38
2023-01-11T01:09:38.432Z,99359.13
2023-01-11T01:12:09.189Z,99366.03
2023-01-11T01:14:37.273Z,99372.94
2023-01-11T01:17:09.769Z,99367.78
2023-01-11T01:19:40.019Z,99366.09
2023-01-11T01:22:09.179Z,99365.28
2023-01-11T01:24:37.958Z,99361.88
2023-01-11T01:27:06.712Z,99362.00
2023-01-11T01:29:35.148Z,99369.75
2023-01-11T01:32:03.661Z,99353.47
2023-01-11T01:34:37.342Z,99351.84
2023-01-11T01:37:06.589Z,99344.91
2023-01-11T01:39:35.645Z,99351.03
2023-01-11T01:42:05.998Z,99353.59
2023-01-11T01:44:59.355Z,99341.63
2023-01-11T01:47:42.072Z,99339.06
2023-01-11T01:50:18.529Z,99339.94
2023-01-11T01:52:51.422Z,99342.53
2023-01-11T01:55:27.696Z,99327.13
2023-01-11T01:57:58.472Z,99327.03
2023-01-11T02:00:27.379Z,99323.66
2023-01-11T02:02:59.135Z,99310.03
2023-01-11T02:05:29.239Z,99317.75
2023-01-11T02:08:02.743Z,99323.84
2023-01-11T02:10:33.848Z,99315.31
2023-01-11T02:13:06.326Z,99315.38
2023-01-11T02:15:35.237Z,99311.09
2023-01-11T02:18:03.889Z,99315.44
2023-01-11T02:20:58.861Z,99302.56
2023-01-11T02:23:59.796Z,99302.56
2023-01-11T02:27:01.949Z,99287.06
2023-01-11T02:29:45.056Z,99297.38
2023-01-11T02:32:24.866Z,99287.06
2023-01-11T02:35:04.801Z,99288.81
2023-01-11T02:37:43.997Z,99285.41
2023-01-11T02:40:24.970Z,99288.94
2023-01-11T02:43:21.399Z,99278.56
2023-01-11T02:46:00.975Z,99289.75
2023-01-11T02:48:36.353Z,99290.56
2023-01-11T02:51:09.814Z,99285.41
2023-01-11T02:53:44.610Z,99283.72
2023-01-11T02:56:19.083Z,99284.69
2023-01-11T02:58:51.775Z,99294.13
2023-01-11T03:01:22.661Z,99286.44
2023-01-11T03:03:51.636Z,99278.75
2023-01-11T03:06:23.675Z,99278.75
2023-01-11T03:09:15.040Z,99277.94
2023-01-11T03:12:16.121Z,99275.34
2023-01-11T03:14:58.108Z,99264.06
2023-01-11T03:17:45.968Z,99257.22
2023-01-11T03:20:23.727Z,99240.94
2023-01-11T03:23:06.070Z,99254.72
2023-01-11T03:25:48.885Z,99240.13
2023-01-11T03:28:27.227Z,99253.97
2023-01-11T03:31:03.832Z,99254.84
2023-01-11T03:33:39.774Z,99249.69
2023-01-11T03:36:18.450Z,99259.16
2023-01-11T03:38:52.823Z,99246.28
2023-01-11T03:41:25.957Z,99246.28
2023-01-11T03:43:57.895Z,99245.47
2023-01-11T03:46:30.850Z,99243.75
2023-01-11T03:49:05.871Z,99250.69
2023-01-11T03:51:41.261Z,99242.06
2023-01-11T03:54:14.732Z,99238.66
2023-01-11T03:56:53.556Z,99243.03
2023-01-11T03:59:22.208Z,99248.19
2023-01-11T04:01:50.700Z,99246.53
2023-01-11T04:04:20.925Z,99242.25
2023-01-11T04:06:49.550Z,99253.44
2023-01-11T04:09:18.167Z,99241.44
2023-01-11T04:11:46.913Z,99231.25
2023-01-11T04:14:15.507Z,99244.19
2023-01-11T04:16:44.279Z,99235.63
2023-01-11T04:19:12.684Z,99227.00
2023-01-11T04:21:42.747Z,99228.78
2023-01-11T04:24:11.149Z,99229.66
2023-01-11T04:26:39.464Z,99223.63
2023-01-11T04:29:07.934Z,99225.38
2023-01-11T04:31:36.295Z,99233.19
2023-01-11T04:34:04.959Z,99230.66
2023-01-11T04:36:33.683Z,99236.69
2023-01-11T04:39:03.535Z,99228.97
2023-01-11T04:41:49.654Z,99228.16
2023-01-11T04:44:18.815Z,99218.56
2023-01-11T04:46:47.215Z,99217.81
2023-01-11T04:49:16.171Z,99218.78
2023-01-11T04:51:44.722Z,99214.50
2023-01-11T04:54:14.672Z,99214.53
2023-01-11T04:56:42.992Z,99205.97
2023-01-11T04:59:11.388Z,99195.66
2023-01-11T05:01:39.907Z,99204.34
2023-01-11T05:04:08.347Z,99200.00
2023-01-11T05:06:38.981Z,99199.13
2023-01-11T05:09:08.456Z,99201.84
2023-01-11T05:11:38.247Z,99205.25
2023-01-11T05:14:06.782Z,99205.25
2023-01-11T05:16:35.431Z,99202.69
2023-01-11T05:19:05.011Z,99210.50
2023-01-11T05:21:36.882Z,99203.63
2023-01-11T05:24:09.367Z,99209.75
2023-01-11T05:26:41.076Z,99202.88
2023-01-11T05:29:13.750Z,99208.97
2023-01-11T05:31:42.500Z,99208.09
2023-01-11T05:34:13.517Z,99207.28
2023-01-11T05:36:42.851Z,99211.63
2023-01-11T05:39:14.198Z,99206.53
2023-01-11T05:41:44.168Z,99200.53
2023-01-11T05:44:31.662Z,99204.94
2023-01-11T05:47:00.765Z,99203.16
2023-01-11T05:49:29.280Z,99194.59
2023-01-11T05:51:57.625Z,99201.53
2023-01-11T05:54:26.171Z,99205.06
2023-01-11T05:56:58.600Z,99200.81
2023-01-11T05:59:27.107Z,99203.41
2023-01-11T06:01:55.652Z,99204.34
2023-01-11T06:04:24.023Z,99196.72
2023-01-11T06:06:52.692Z,99199.28
2023-01-11T06:09:21.324Z,99207.19
2023-01-11T06:11:50.575Z,99202.91
2023-01-11T06:14:20.395Z,99204.66
2023-01-11T06:16:48.810Z,99199.53
2023-01-11T06:19:17.693Z,99203.88
2023-01-11T06:21:46.040Z,99200.53
2023-01-11T06:24:14.489Z,99199.69
2023-01-11T06:26:43.272Z,99205.78
2023-01-11T06:29:11.967Z,99207.56
2023-01-11T06:31:41.744Z,99203.34
2023-01-11T06:34:10.331Z,99195.66
2023-01-11T06:36:39.536Z,99188.78
2023-01-11T06:39:07.976Z,99189.69
2023-01-11T06:41:36.511Z,99188.88
2023-01-11T06:44:06.090Z,99188.06
2023-01-11T06:46:34.617Z,99187.25
2023-01-11T06:49:05.101Z,99196.81
2023-01-11T06:51:34.015Z,99197.69
2023-01-11T06:54:02.400Z,99193.47
2023-01-11T06:56:30.842Z,99203.00
2023-01-11T06:58:59.315Z,99201.25
2023-01-11T07:01:30.056Z,99203.97
2023-01-11T07:03:58.532Z,99194.50
2023-01-11T07:06:32.062Z,99208.38
2023-01-11T07:09:00.575Z,99213.56
2023-01-11T07:11:29.013Z,99216.16
2023-01-11T07:13:57.458Z,99217.94
2023-01-11T07:16:25.876Z,99230.03
2023-01-11T07:18:54.245Z,99238.75
2023-01-11T07:21:22.845Z,99236.19
2023-01-11T07:23:53.628Z,99237.97
2023-01-11T07:26:22.162Z,99240.53
2023-01-11T07:28:50.602Z,99243.13
2023-01-11T07:31:19.291Z,99244.00
2023-01-11T07:33:47.700Z,99248.44
2023-01-11T07:36:16.149Z,99250.16
2023-01-11T07:38:44.920Z,99253.69
2023-01-11T07:41:32.504Z,99260.69
2023-01-11T07:44:00.844Z,99260.63
2023-01-11T07:46:29.443Z,99275.34
2023-01-11T07:48:58.119Z,99278.00
2023-01-11T07:51:26.538Z,99281.47
2023-01-11T07:53:55.161Z,99292.69
2023-01-11T07:56:24.999Z,99283.31
2023-01-11T07:58:53.434Z,99291.94
2023-01-11T08:01:22.077Z,99300.53
2023-01-11T08:03:51.248Z,99285.91
2023-01-11T08:06:19.749Z,99289.38
2023-01-11T08:08:48.215Z,99273.06
2023-01-11T08:11:34.270Z,99264.50
2023-01-11T08:14:21.807Z,99278.25
2023-01-11T08:16:50.361Z,99284.28
2023-01-11T08:19:19.058Z,99274.84
2023-01-11T08:21:47.506Z,99282.66
2023-01-11T08:24:16.093Z,99293.91
2023-01-11T08:26:44.592Z,99295.75
2023-01-11T08:29:14.747Z,99298.31
2023-01-11T08:31:45.562Z,99297.50
2023-01-11T08:34:14.095Z,99295.81
2023-01-11T08:36:42.809Z,99300.13
2023-01-11T08:39:11.938Z,99302.78
2023-01-11T08:41:40.489Z,99295.97
2023-01-11T08:44:11.703Z,99298.56
2023-01-11T08:46:41.730Z,99301.19
2023-01-11T08:49:12.479Z,99309.81
2023-01-11T08:51:41.717Z,99314.16
2023-01-11T08:54:14.303Z,99323.75
2023-01-11T08:56:42.748Z,99329.75
2023-01-11T08:59:12.444Z,99335.00
2023-01-11T09:01:42.423Z,99339.34
2023-01-11T09:04:23.849Z,99345.38
2023-01-11T09:06:54.593Z,99342.78
2023-01-11T09:09:23.028Z,99341.06
2023-01-11T09:11:56.950Z,99347.13
2023-01-11T09:14:27.873Z,99349.69
2023-01-11T09:16:58.363Z,99360.94
2023-01-11T09:19:27.130Z,99358.34
2023-01-11T09:22:00.297Z,99369.66
2023-01-11T09:24:28.928Z,99362.72
2023-01-11T09:27:02.136Z,99378.28
2023-01-11T09:29:30.700Z,99385.16
2023-01-11T09:32:00.486Z,99399.88
2023-01-11T09:34:28.864Z,99410.22
2023-01-11T09:37:00.026Z,99409.25
2023-01-11T09:39:28.954Z,99419.59
2023-01-11T09:42:37.821Z,99417.75
2023-01-11T09:45:14.460Z,99418.53
2023-01-11T09:47:48.363Z,99421.94
2023-01-11T09:50:21.848Z,99433.19
2023-01-11T09:52:54.397Z,99425.50
2023-01-11T09:55:34.165Z,99437.59
2023-01-11T09:58:32.894Z,99450.56
2023-01-11T10:01:10.573Z,99438.50
2023-01-11T10:04:11.910Z,99445.34
2023-01-11T10:06:53.012Z,99451.44
2023-01-11T10:18:37.502Z,99461.69
2023-01-11T10:19:12.229Z,99472.84
2023-01-11T10:21:45.678Z,99459.91
2023-01-11T10:24:23.424Z,99456.50
2023-01-11T10:26:58.350Z,99462.59
2023-01-11T10:29:51.585Z,99460.88
2023-01-11T10:32:34.756Z,99452.22
2023-01-11T10:35:44.739Z,99452.97
2023-01-11T10:38:43.473Z,99460.66
2023-01-11T10:41:26.235Z,99468.38
2023-01-11T10:44:11.163Z,99468.38
2023-01-11T10:46:44.811Z,99467.50
2023-01-11T10:49:35.529Z,99469.94
2023-01-11T10:52:22.959Z,99479.47
2023-01-11T10:54:55.899Z,99497.50
2023-01-11T10:57:59.448Z,99495.88
2023-01-11T11:00:38.720Z,99478.56
2023-01-11T11:03:38.366Z,99482.88
2023-01-11T11:06:13.245Z,99496.75
2023-01-11T11:08:52.832Z,99480.34
2023-01-11T11:11:30.149Z,99482.13
2023-01-11T11:14:05.048Z,99495.09
2023-01-11T11:16:52.824Z,99492.47
2023-01-11T11:19:26.832Z,99495.94
2023-01-11T11:21:55.735Z,99492.47
2023-01-11T11:24:33.198Z,99503.81
2023-01-11T11:27:11.221Z,99499.50
2023-01-11T11:29:44.709Z,99509.84
2023-01-11T11:32:24.452Z,99501.28
2023-01-11T11:34:54.179Z,99518.59
2023-01-11T11:37:27.620Z,99524.72
2023-01-11T11:39:57.879Z,99525.63
2023-01-11T11:42:27.401Z,99530.78
2023-01-11T11:45:17.481Z,99527.25
2023-01-11T11:48:03.499Z,99534.97
2023-01-11T11:50:44.183Z,99528.91
2023-01-11T11:53:26.884Z,99528.91
2023-01-11T11:55:57.100Z,99533.19
2023-01-11T11:58:28.467Z,99526.25
2023-01-11T12:00:56.886Z,99527.06
2023-01-11T12:03:30.560Z,99531.44
2023-01-11T12:06:02.843Z,99536.66
2023-01-11T12:08:34.064Z,99530.53
2023-01-11T12:11:07.476Z,99534.09
2023-01-11T12:13:39.071Z,99531.50
2023-01-11T12:16:20.318Z,99529.72
2023-01-11T12:18:49.199Z,99525.44
2023-01-11T12:21:21.575Z,99527.22
2023-01-11T12:24:09.697Z,99535.97
2023-01-11T12:26:46.807Z,99538.63
2023-01-11T12:29:41.040Z,99537.81
2023-01-11T12:32:45.940Z,99539.50
2023-01-11T12:35:35.443Z,99529.16
2023-01-11T12:38:22.291Z,99526.50
2023-01-11T12:41:13.755Z,99517.03
2023-01-11T12:44:01.269Z,99522.97
2023-01-11T12:46:46.535Z,99530.69
2023-01-11T12:49:30.462Z,99525.50
2023-01-11T12:52:35.958Z,99527.13
2023-01-11T12:55:37.169Z,99526.25
2023-01-11T12:58:15.320Z,99527.00
2023-01-11T13:01:22.190Z,99533.03
2023-01-11T13:04:34.701Z,99526.97
2023-01-11T13:07:15.017Z,99534.72
2023-01-11T13:09:59.093Z,99541.63
2023-01-11T13:12:35.007Z,99544.28
2023-01-11T13:15:29.060Z,99541.84
2023-01-11T13:18:05.843Z,99547.03
2023-01-11T13:20:59.234Z,99543.66
2023-01-11T13:23:39.435Z,99556.66
2023-01-11T13:26:21.698Z,99555.03
2023-01-11T13:28:56.175Z,99564.50
2023-01-11T13:31:25.430Z,99570.66
2023-01-11T13:34:08.786Z,99559.41
2023-01-11T13:36:45.524Z,99572.34
2023-01-11T13:39:22.143Z,99580.09
2023-01-11T13:41:56.395Z,99576.63
2023-01-11T13:44:29.894Z,99561.09
2023-01-11T13:47:07.670Z,99564.47
2023-01-11T13:49:52.965Z,99572.16
2023-01-11T13:52:29.808Z,99577.34
2023-01-11T13:55:04.256Z,99575.56
2023-01-11T13:57:44.629Z,99569.50
2023-01-11T14:00:24.555Z,99573.78
2023-01-11T14:03:00.405Z,99581.63
2023-01-11T14:05:40.942Z,99584.28
2023-01-11T14:08:48.151Z,99584.28
2023-01-11T14:11:30.250Z,99591.25
2023-01-11T14:14:20.227Z,99601.56
2023-01-11T14:17:22.885Z,99601.56
2023-01-11T14:19:58.650Z,99606.75
2023-01-11T14:22:36.691Z,99611.94
2023-01-11T14:25:15.501Z,99605.06
2023-01-11T14:28:05.199Z,99610.25
2023-01-11T14:31:16.852Z,99610.25
2023-01-11T14:34:16.284Z,99620.59
2023-01-11T14:37:34.278Z,99617.97
2023-01-11T14:40:32.971Z,99619.59
2023-01-11T14:43:39.010Z,99614.34
2023-01-11T14:46:29.706Z,99618.63
2023-01-11T14:49:12.651Z,99628.09
2023-01-11T14:51:56.099Z,99632.34
2023-01-11T14:54:29.186Z,99627.97
2023-01-11T14:56:58.645Z,99628.78
2023-01-11T14:59:40.240Z,99624.59
2023-01-11T15:02:28.427Z,99634.94
2023-01-11T15:05:12.322Z,99634.03
2023-01-11T15:07:43.894Z,99634.03
2023-01-11T15:10:47.585Z,99634.84
2023-01-11T15:13:21.881Z,99636.56
2023-01-11T15:16:08.976Z,99631.38
2023-01-11T15:18:46.599Z,99634.78
2023-01-11T15:21:23.088Z,99633.09
2023-01-11T15:23:54.805Z,99635.66
2023-01-11T15:26:27.653Z,99644.31
2023-01-11T15:28:59.583Z,99633.91
2023-01-11T15:31:36.310Z,99639.94
2023-01-11T15:34:26.370Z,99653.66
2023-01-11T15:37:18.799Z,99650.19
2023-01-11T15:39:53.228Z,99653.66
2023-01-11T15:43:09.991Z,99650.91
2023-01-11T15:46:31.841Z,99664.63
2023-01-11T15:49:43.000Z,99648.94
2023-01-11T15:53:11.147Z,99656.59
2023-01-11T15:56:35.591Z,99653.03
2023-01-11T16:00:06.019Z,99652.97
2023-01-11T16:03:12.441Z,99656.31
2023-01-11T16:05:45.439Z,99645.19
2023-01-11T16:08:23.951Z,99650.38
2023-01-11T16:11:04.504Z,99652.97
2023-01-11T16:13:54.733Z,99662.44
2023-01-11T16:16:28.948Z,99659.00
2023-01-11T16:19:07.469Z,99661.56
2023-01-11T16:21:39.399Z,99652.09
2023-01-11T16:24:10.607Z,99659.00
2023-01-11T16:26:41.966Z,99658.91
2023-01-11T16:29:15.504Z,99657.13
2023-01-11T16:31:57.493Z,99657.06
2023-01-11T16:34:28.923Z,99661.31
2023-01-11T16:36:58.628Z,99654.28
2023-01-11T16:39:30.809Z,99675.03
2023-01-11T16:42:05.841Z,99677.53
2023-01-11T16:44:42.212Z,99672.25
2023-01-11T16:47:17.999Z,99690.34
2023-01-11T16:49:52.399Z,99695.53
2023-01-11T16:52:49.145Z,99693.66
2023-01-11T16:55:22.653Z,99694.41
2023-01-11T16:57:58.511Z,99706.38
2023-01-11T17:00:36.125Z,99696.94
2023-01-11T17:03:26.887Z,99697.66
2023-01-11T17:06:26.143Z,99695.91
2023-01-11T17:08:56.772Z,99709.66
2023-01-11T17:11:30.147Z,99705.34
2023-01-11T17:14:46.455Z,99699.31
2023-01-11T17:17:15.512Z,99700.78
2023-01-11T17:19:47.167Z,99709.50
2023-01-11T17:22:24.980Z,99711.13
2023-01-11T17:24:57.198Z,99717.19
2023-01-11T17:27:30.567Z,99711.13
2023-01-11T17:30:02.906Z,99717.25
2023-01-11T17:32:37.426Z,99727.59
2023-01-11T17:35:16.191Z,99730.19
2023-01-11T17:37:49.393Z,99730.06
2023-01-11T17:40:25.047Z,99734.34
2023-01-11T17:43:13.505Z,99739.41
2023-01-11T17:45:42.302Z,99746.28
2023-01-11T17:48:13.807Z,99744.59
2023-01-11T17:50:49.812Z,99737.81
2023-01-11T17:53:26.610Z,99726.59
2023-01-11T17:55:57.653Z,99727.38
2023-01-11T17:58:27.447Z,99726.50
2023-01-11T18:01:24.883Z,99711.00
2023-01-11T18:03:57.083Z,99711.00
2023-01-11T18:06:36.604Z,99716.97
2023-01-11T18:09:18.046Z,99723.03
2023-01-11T18:11:47.362Z,99713.38
2023-01-11T18:14:22.755Z,99717.78
2023-01-11T18:17:04.035Z,99722.94
2023-01-11T18:19:36.643Z,99725.50
2023-01-11T18:22:15.653Z,99718.59
2023-01-11T18:24:55.085Z,99722.03
2023-01-11T18:27:32.825Z,99722.91
2023-01-11T18:30:06.187Z,99734.94
2023-01-11T18:32:40.374Z,99736.69
2023-01-11T18:35:18.908Z,99725.50
2023-01-11T18:37:48.300Z,99722.91
2023-01-11T18:40:20.484Z,99733.16
2023-01-11T18:42:51.799Z,99730.56
2023-01-11T18:45:22.015Z,99722.91
2023-01-11T18:47:50.495Z,99721.19
2023-01-11T18:50:19.818Z,99712.41
2023-01-11T18:52:48.425Z,99719.44
2023-01-11T18:55:18.654Z,99713.38
2023-01-11T18:57:48.397Z,99722.81
2023-01-11T19:00:18.659Z,99722.81
2023-01-11T19:02:47.633Z,99720.16
2023-01-11T19:05:18.662Z,99715.00
2023-01-11T19:07:47.396Z,99718.34
2023-01-11T19:10:20.698Z,99712.28
2023-01-11T19:12:49.088Z,99712.28
2023-01-11T19:15:18.367Z,99714.88
2023-01-11T19:17:46.793Z,99708.81
2023-01-11T19:20:15.339Z,99701.00
2023-01-11T19:22:47.117Z,99707.03
2023-01-11T19:25:15.628Z,99703.50
2023-01-11T19:27:46.052Z,99704.38
2023-01-11T19:30:15.484Z,99691.38
2023-01-11T19:32:43.980Z,99677.66
2023-01-11T19:35:12.410Z,99671.59
2023-01-11T19:37:41.325Z,99681.06
2023-01-11T19:40:14.079Z,99644.88
2023-01-11T19:42:43.121Z,99673.25
2023-01-11T19:45:12.993Z,99674.97
2023-01-11T19:47:42.220Z,99671.38
2023-01-11T19:50:12.724Z,99674.88
2023-01-11T19:52:41.182Z,99676.53
2023-01-11T19:55:10.623Z,99672.19
2023-01-11T19:57:39.416Z,99671.28
2023-01-11T20:00:09.923Z,99677.47
2023-01-11T20:02:42.675Z,99676.66
2023-01-11T20:05:13.485Z,99680.03
2023-01-11T20:07:42.074Z,99668.78
2023-01-11T20:10:12.069Z,99661.03
2023-01-11T20:12:41.087Z,99649.81
2023-01-11T20:15:12.221Z,99653.22
2023-01-11T20:17:42.052Z,99647.25
2023-01-11T20:20:14.527Z,99654.91
2023-01-11T20:22:45.656Z,99661.81
2023-01-11T20:25:14.730Z,99662.59
2023-01-11T20:27:45.672Z,99647.03
2023-01-11T20:30:14.684Z,99661.72
2023-01-11T20:32:44.901Z,99658.19
2023-01-11T20:35:13.858Z,99646.97
2023-01-11T20:37:42.603Z,99642.59
2023-01-11T20:40:14.470Z,99629.66
2023-01-11T20:42:43.626Z,99627.94
2023-01-11T20:45:13.243Z,99622.81
2023-01-11T20:47:43.859Z,99611.69
2023-01-11T20:50:12.740Z,99615.97
2023-01-11T20:52:41.240Z,99616.84
2023-01-11T20:55:10.891Z,99615.97
2023-01-11T20:57:39.389Z,99616.84
2023-01-11T21:02:38.797Z,99612.56
2023-01-11T21:05:10.574Z,99618.63
2023-01-11T21:07:39.011Z,99603.94
2023-01-11T21:10:10.180Z,99616.94
2023-01-11T21:12:41.291Z,99609.19
2023-01-11T21:15:10.856Z,99614.44
2023-01-11T21:17:39.440Z,99596.38
2023-01-11T21:20:11.999Z,99614.53
2023-01-11T21:22:40.457Z,99619.72
2023-01-11T21:25:10.596Z,99600.03
2023-01-11T21:27:39.103Z,99613.84
2023-01-11T21:30:09.315Z,99610.38
2023-01-11T21:32:40.591Z,99619.06
2023-01-11T21:35:11.201Z,99616.56
2023-01-11T21:37:39.869Z,99588.91
2023-01-11T21:40:11.839Z,99594.06
2023-01-11T21:42:40.304Z,99585.34
2023-01-11T21:45:11.083Z,99582.78
2023-01-11T21:47:40.484Z,99584.47
2023-01-11T21:50:12.574Z,99572.44
2023-01-11T21:52:41.092Z,99566.38
2023-01-11T21:55:11.435Z,99548.19
2023-01-11T21:57:39.991Z,99554.13
2023-01-11T22:00:11.283Z,99542.91
2023-01-11T22:02:42.711Z,99551.47
2023-01-11T22:05:13.137Z,99540.41
2023-01-11T22:07:43.700Z,99525.66
2023-01-11T22:10:12.867Z,99539.38
2023-01-11T22:12:41.583Z,99526.34
2023-01-11T22:15:11.406Z,99529.81
2023-01-11T22:17:41.401Z,99532.31
2023-01-11T22:20:15.124Z,99525.38
2023-01-11T22:22:43.773Z,99536.47
2023-01-11T22:25:12.225Z,99516.56
2023-01-11T22:27:40.655Z,99543.25
2023-01-11T22:30:12.777Z,99539.78
2023-01-11T22:32:43.379Z,99534.47
2023-01-11T22:35:13.396Z,99531.91
2023-01-11T22:37:44.246Z,99534.34
2023-01-11T22:40:15.369Z,99534.34
2023-01-11T22:42:43.785Z,99523.91
2023-01-11T22:45:13.003Z,99541.09
2023-01-11T22:47:41.520Z,99544.41
2023-01-11T22:50:12.945Z,99549.56
2023-01-11T22:52:44.458Z,99551.28
2023-01-11T22:55:12.871Z,99559.78
2023-01-11T22:57:41.347Z,99547.75
2023-01-11T23:00:13.955Z,99554.66
2023-01-11T23:02:42.665Z,99558.94
2023-01-11T23:05:12.720Z,99555.53
2023-01-11T23:07:41.322Z,99555.53
2023-01-11T23:10:13.657Z,99555.53
2023-01-11T23:13:00.015Z,99554.66
2023-01-11T23:15:28.805Z,99549.50
2023-01-11T23:17:57.309Z,99555.53
2023-01-11T23:20:27.325Z,99552.16
2023-01-11T23:22:55.884Z,99542.72
2023-01-11T23:25:24.324Z,99542.72
2023-01-11T23:27:52.783Z,99542.72
2023-01-11T23:30:21.479Z,99533.28
2023-01-11T23:32:49.907Z,99543.59
2023-01-11T23:35:18.978Z,99538.44
2023-01-11T23:37:50.422Z,99544.50
2023-01-11T23:40:19.180Z,99531.56
2023-01-11T23:42:46.626Z,99535.09
2023-01-11T23:45:17.452Z,99530.81
2023-01-11T23:47:44.922Z,99543.72
2023-01-11T23:50:13.375Z,99550.66
2023-01-11T23:52:41.744Z,99542.91
2023-01-11T23:55:13.911Z,99555.81
2023-01-11T23:58:02.820Z,99549.72
